createdAt,value
2023-01-07T00:26:07.755Z,11.40
2023-01-07T02:10:16.139Z,6.57
2023-01-07T02:13:20.965Z,7.55
2023-01-07T02:37:40.764Z,10.02
2023-01-07T02:40:32.313Z,8.05
2023-01-07T02:43:05.614Z,8.18
2023-01-07T02:45:39.497Z,9.38
2023-01-07T02:48:08.880Z,9.55
2023-01-07T02:50:36.046Z,9.32
2023-01-07T02:53:03.469Z,8.15
2023-01-07T02:55:41.867Z,11.20
2023-01-07T02:58:41.694Z,10.35
2023-01-07T03:01:21.631Z,9.23
2023-01-07T03:04:03.999Z,7.45
2023-01-07T03:07:08.831Z,10.77
2023-01-07T03:10:01.418Z,8.98
2023-01-07T03:12:43.927Z,8.10
2023-01-07T03:15:16.882Z,8.10
2023-01-07T03:17:55.152Z,8.63
2023-01-07T03:20:24.286Z,10.18
2023-01-07T03:22:52.786Z,10.45
2023-01-07T03:25:22.379Z,9.77
2023-01-07T03:27:52.213Z,12.18
2023-01-07T03:30:19.730Z,12.98
2023-01-07T03:33:01.417Z,11.85
2023-01-07T03:35:31.152Z,11.40
2023-01-07T03:38:01.067Z,14.32
2023-01-07T03:40:28.435Z,15.10
2023-01-07T03:42:55.549Z,11.05
2023-01-07T03:45:24.289Z,13.73
2023-01-07T03:47:53.975Z,12.93
2023-01-07T03:50:21.776Z,15.10
2023-01-07T03:52:50.741Z,12.38
2023-01-07T03:55:17.919Z,16.83
2023-01-07T03:57:45.097Z,12.70
2023-01-07T04:00:13.841Z,11.02
2023-01-07T04:02:42.093Z,15.77
2023-01-07T04:32:30.451Z,12.93
2023-01-07T04:34:57.600Z,10.63
2023-01-07T04:37:24.771Z,10.38
2023-01-07T04:39:53.169Z,11.05
2023-01-07T04:42:20.321Z,12.65
2023-01-07T04:44:47.466Z,10.95
2023-01-07T04:47:14.609Z,15.85
2023-01-07T04:49:41.711Z,10.30
2023-01-07T04:52:09.045Z,13.45
2023-01-07T04:54:36.145Z,12.73
2023-01-07T04:57:03.430Z,14.00
2023-01-07T04:59:30.568Z,10.60
2023-01-07T05:01:57.791Z,10.30
2023-01-07T05:04:25.120Z,10.98
2023-01-07T05:06:52.286Z,11.30
2023-01-07T05:09:19.517Z,11.23
2023-01-07T05:11:46.669Z,10.73
2023-01-07T05:14:13.970Z,10.88
2023-01-07T05:16:41.257Z,10.23
2023-01-07T05:19:09.997Z,9.75
2023-01-07T05:34:27.475Z,9.18
2023-01-07T06:23:52.896Z,11.93
2023-01-07T06:53:12.676Z,8.52
2023-01-07T06:55:39.877Z,9.80
2023-01-07T10:16:06.650Z,8.07
2023-01-07T10:19:01.631Z,6.75
2023-01-07T10:21:38.950Z,5.82
2023-01-07T10:24:22.035Z,5.97
2023-01-07T10:26:51.557Z,5.55
2023-01-07T10:29:29.781Z,6.65
2023-01-07T10:31:59.992Z,5.68
2023-01-07T11:35:17.501Z,5.07
2023-01-07T11:37:46.538Z,3.25
2023-01-07T11:40:15.295Z,5.28
2023-01-07T11:42:49.475Z,6.47
2023-01-07T11:45:22.501Z,4.43
2023-01-07T11:48:07.986Z,4.00
2023-01-07T11:50:37.480Z,5.70
2023-01-07T11:53:13.777Z,2.63
2023-01-07T11:56:07.985Z,4.80
2023-01-07T11:58:40.788Z,4.90
2023-01-07T12:01:07.951Z,2.88
2023-01-07T12:03:40.776Z,4.65
2023-01-07T12:06:32.677Z,6.20
2023-01-07T12:09:25.251Z,3.58
2023-01-07T12:11:54.330Z,4.50
2023-01-07T12:14:31.558Z,2.47
2023-01-07T12:17:11.769Z,2.90
2023-01-07T12:19:58.784Z,4.38
2023-01-07T12:22:44.237Z,3.60
2023-01-07T12:25:34.584Z,8.13
2023-01-07T12:28:18.796Z,2.88
2023-01-07T12:31:23.681Z,4.95
2023-01-07T12:34:25.848Z,3.20
2023-01-07T12:37:01.664Z,4.90
2023-01-07T12:39:37.818Z,4.93
2023-01-07T12:42:24.690Z,4.68
2023-01-07T12:44:55.820Z,3.45
2023-01-07T12:47:34.961Z,3.83
2023-01-07T12:50:12.223Z,3.50
2023-01-07T12:52:56.358Z,2.78
2023-01-07T12:55:28.758Z,2.70
2023-01-07T12:58:17.857Z,3.63
2023-01-07T13:01:02.513Z,2.95
2023-01-07T13:03:40.024Z,3.72
2023-01-07T13:06:14.433Z,3.97
2023-01-07T13:09:16.335Z,3.92
2023-01-07T13:12:05.162Z,3.28
2023-01-07T13:14:37.895Z,4.85
2023-01-07T13:17:17.028Z,2.30
2023-01-07T13:19:44.301Z,3.20
2023-01-07T13:22:23.425Z,2.85
2023-01-07T13:25:32.950Z,3.30
2023-01-07T13:28:38.636Z,4.35
2023-01-07T13:31:11.476Z,3.47
2023-01-07T13:34:02.561Z,3.45
2023-01-07T13:36:56.661Z,3.15
2023-01-07T13:39:44.351Z,4.75
2023-01-07T13:42:35.957Z,3.42
2023-01-07T13:45:09.723Z,3.00
2023-01-07T13:47:50.473Z,2.47
2023-01-07T13:50:42.248Z,3.40
2023-01-07T13:53:15.350Z,3.53
2023-01-07T13:55:47.601Z,3.92
2023-01-07T13:58:34.024Z,2.95
2023-01-07T14:01:18.179Z,5.10
2023-01-07T14:03:53.402Z,3.60
2023-01-07T14:06:20.759Z,4.60
2023-01-07T14:09:06.111Z,4.78
2023-01-07T14:11:33.189Z,3.13
2023-01-07T14:14:31.516Z,4.10
2023-01-07T14:17:18.375Z,3.08
2023-01-07T14:19:50.343Z,6.25
2023-01-07T14:22:32.617Z,3.80
2023-01-07T14:25:23.866Z,2.75
2023-01-07T14:28:06.323Z,6.53
2023-01-07T14:30:44.157Z,3.30
2023-01-07T14:33:24.255Z,3.20
2023-01-07T14:36:00.486Z,6.60
2023-01-07T14:38:30.381Z,3.95
2023-01-07T14:41:08.500Z,3.90
2023-01-07T14:43:48.450Z,7.53
2023-01-07T14:46:24.745Z,3.45
2023-01-07T14:48:58.025Z,4.97
2023-01-07T14:51:43.790Z,2.85
2023-01-07T14:54:41.565Z,4.90
2023-01-07T14:57:55.136Z,5.35
2023-01-07T15:00:46.950Z,3.58
2023-01-07T15:04:04.736Z,7.45
2023-01-07T15:06:35.496Z,5.93
2023-01-07T15:09:29.554Z,5.28
2023-01-07T15:12:17.809Z,4.07
2023-01-07T15:23:59.134Z,4.25
2023-01-07T17:13:38.929Z,3.55
2023-01-07T18:01:15.417Z,6.05
2023-01-07T18:25:49.866Z,5.45
2023-01-07T18:32:36.412Z,5.22
2023-01-07T19:50:09.854Z,6.07
2023-01-07T21:05:02.957Z,5.63
2023-01-07T23:06:47.673Z,12.57
2023-01-07T23:13:34.436Z,5.05
